createdAt,value
2022-12-19T00:00:46.879Z,36.63
2022-12-19T00:03:13.492Z,36.65
2022-12-19T00:05:39.908Z,36.82
2022-12-19T00:08:17.150Z,36.67
2022-12-19T00:10:44.041Z,36.63
2022-12-19T00:13:10.382Z,36.88
2022-12-19T00:15:36.725Z,36.88
2022-12-19T00:18:03.061Z,36.74
2022-12-19T00:20:29.390Z,36.87
2022-12-19T00:22:55.697Z,36.85
2022-12-19T00:25:22.031Z,36.82
2022-12-19T00:27:48.349Z,36.96
2022-12-19T00:30:14.665Z,36.86
2022-12-19T00:32:41.264Z,36.90
2022-12-19T00:35:07.645Z,36.92
2022-12-19T00:37:33.960Z,37.16
2022-12-19T00:40:00.276Z,36.99
2022-12-19T00:42:26.594Z,36.96
2022-12-19T00:44:52.920Z,36.94
2022-12-19T00:47:19.257Z,36.95
2022-12-19T00:49:45.572Z,37.02
2022-12-19T00:52:16.481Z,37.04
2022-12-19T00:54:42.849Z,37.05
2022-12-19T00:57:09.190Z,37.01
2022-12-19T00:59:35.673Z,37.04
2022-12-19T01:02:02.122Z,37.05
2022-12-19T01:04:31.234Z,36.99
2022-12-19T01:07:01.552Z,37.10
2022-12-19T01:09:30.871Z,36.98
2022-12-19T01:12:15.878Z,37.12
2022-12-19T01:14:42.195Z,37.06
2022-12-19T01:17:08.511Z,37.16
2022-12-19T01:19:37.809Z,37.15
2022-12-19T01:22:08.733Z,37.15
2022-12-19T01:24:35.196Z,37.18
2022-12-19T01:27:01.549Z,37.10
2022-12-19T01:29:27.917Z,37.15
2022-12-19T01:31:54.264Z,37.18
2022-12-19T01:34:20.602Z,37.35
2022-12-19T01:36:47.133Z,37.39
2022-12-19T01:39:13.453Z,37.32
2022-12-19T01:41:39.773Z,37.32
2022-12-19T01:44:07.686Z,37.36
2022-12-19T01:46:47.629Z,37.40
2022-12-19T01:49:25.224Z,37.33
2022-12-19T01:51:51.890Z,37.29
2022-12-19T01:54:19.951Z,37.33
2022-12-19T01:56:47.317Z,37.43
2022-12-19T01:59:14.414Z,37.31
2022-12-19T02:01:51.723Z,37.34
2022-12-19T02:04:24.136Z,37.42
2022-12-19T02:06:51.877Z,37.38
2022-12-19T02:09:23.676Z,37.43
2022-12-19T02:11:50.889Z,37.39
2022-12-19T02:14:17.268Z,37.44
2022-12-19T02:16:46.668Z,37.41
2022-12-19T02:19:23.691Z,37.46
2022-12-19T02:22:08.929Z,37.44
2022-12-19T02:24:44.324Z,37.48
2022-12-19T02:27:18.823Z,37.50
2022-12-19T02:29:50.373Z,37.51
2022-12-19T02:32:20.646Z,37.53
2022-12-19T02:44:02.053Z,37.62
2022-12-19T02:46:33.794Z,37.60
2022-12-19T02:49:00.588Z,37.62
2022-12-19T02:51:27.051Z,37.68
2022-12-19T02:53:53.447Z,37.73
2022-12-19T02:56:38.669Z,37.67
2022-12-19T02:59:08.215Z,37.75
2022-12-19T03:01:48.582Z,37.58
2022-12-19T03:04:16.964Z,37.83
2022-12-19T03:06:53.189Z,37.75
2022-12-19T03:09:40.874Z,37.73
2022-12-19T03:12:09.892Z,37.73
2022-12-19T03:14:39.260Z,37.74
2022-12-19T03:17:06.860Z,37.82
2022-12-19T03:19:33.698Z,37.83
2022-12-19T03:22:00.034Z,37.88
2022-12-19T03:24:26.370Z,37.75
2022-12-19T03:26:58.472Z,37.83
2022-12-19T03:29:29.534Z,37.88
2022-12-19T03:31:56.349Z,37.82
2022-12-19T03:34:24.959Z,37.82
2022-12-19T03:36:55.351Z,37.80
2022-12-19T03:39:21.676Z,37.73
2022-12-19T03:42:06.789Z,37.86
2022-12-19T03:44:33.645Z,37.84
2022-12-19T03:47:10.189Z,37.89
2022-12-19T03:49:37.257Z,37.89
2022-12-19T03:52:21.774Z,38.08
2022-12-19T03:55:08.292Z,37.99
2022-12-19T03:57:40.102Z,38.14
2022-12-19T04:00:07.393Z,37.87
2022-12-19T04:02:39.783Z,38.10
2022-12-19T04:05:07.534Z,38.33
2022-12-19T04:07:33.847Z,38.18
2022-12-19T04:10:01.669Z,38.41
2022-12-19T04:12:29.587Z,38.42
2022-12-19T04:14:55.916Z,38.33
2022-12-19T04:17:41.225Z,38.46
2022-12-19T04:20:17.217Z,38.46
2022-12-19T04:22:51.117Z,38.48
2022-12-19T04:25:19.528Z,38.51
2022-12-19T04:27:48.230Z,38.53
2022-12-19T04:30:15.145Z,38.46
2022-12-19T04:32:41.461Z,38.45
2022-12-19T04:35:10.512Z,38.53
2022-12-19T04:37:36.840Z,38.49
2022-12-19T04:40:03.792Z,38.51
2022-12-19T04:42:30.155Z,38.44
2022-12-19T04:44:56.481Z,38.53
2022-12-19T04:47:22.957Z,38.65
2022-12-19T04:49:49.296Z,38.56
2022-12-19T04:52:15.625Z,38.65
2022-12-19T04:54:41.969Z,38.80
2022-12-19T04:57:08.289Z,38.91
2022-12-19T04:59:34.615Z,38.59
2022-12-19T05:02:01.071Z,38.77
2022-12-19T05:04:27.456Z,38.86
2022-12-19T05:06:53.831Z,38.84
2022-12-19T05:09:20.187Z,38.83
2022-12-19T05:11:46.514Z,38.86
2022-12-19T05:14:12.836Z,38.92
2022-12-19T05:16:39.170Z,38.94
2022-12-19T05:19:05.493Z,38.73
2022-12-19T05:21:31.863Z,38.82
2022-12-19T05:23:58.184Z,38.75
2022-12-19T05:26:24.515Z,38.75
2022-12-19T05:28:50.827Z,38.78
2022-12-19T05:31:17.939Z,38.77
2022-12-19T05:33:44.289Z,38.81
2022-12-19T05:36:10.848Z,38.79
2022-12-19T05:38:37.150Z,38.82
2022-12-19T05:41:07.078Z,38.76
2022-12-19T05:43:33.382Z,38.80
2022-12-19T05:45:59.911Z,38.69
2022-12-19T05:48:26.240Z,38.69
2022-12-19T05:50:52.570Z,38.79
2022-12-19T05:53:24.549Z,38.79
2022-12-19T05:55:52.277Z,38.88
2022-12-19T05:58:18.583Z,39.02
2022-12-19T06:00:44.921Z,38.87
2022-12-19T06:03:11.301Z,38.92
2022-12-19T06:05:38.245Z,38.82
2022-12-19T06:08:04.623Z,38.79
2022-12-19T06:10:31.013Z,38.87
2022-12-19T06:12:57.353Z,38.74
2022-12-19T06:15:23.686Z,38.90
2022-12-19T06:17:52.647Z,38.84
2022-12-19T06:20:18.977Z,38.71
2022-12-19T06:22:45.290Z,38.73
2022-12-19T06:25:11.614Z,38.71
2022-12-19T06:27:40.861Z,38.73
2022-12-19T06:30:07.359Z,38.77
2022-12-19T06:32:38.068Z,38.73
2022-12-19T06:35:05.166Z,38.74
2022-12-19T06:37:31.590Z,38.96
2022-12-19T06:39:57.946Z,38.83
2022-12-19T06:42:26.988Z,38.86
2022-12-19T06:45:12.293Z,38.77
2022-12-19T06:47:41.377Z,38.79
2022-12-19T06:50:07.761Z,38.40
2022-12-19T06:52:34.101Z,38.71
2022-12-19T06:55:00.537Z,38.69
2022-12-19T06:57:26.880Z,38.63
2022-12-19T06:59:53.197Z,38.59
2022-12-19T07:02:27.283Z,38.35
2022-12-19T07:04:57.886Z,38.29
2022-12-19T07:07:27.570Z,38.38
2022-12-19T07:09:56.600Z,38.43
2022-12-19T07:12:22.917Z,38.37
2022-12-19T07:14:53.355Z,38.44
2022-12-19T07:17:19.978Z,38.47
2022-12-19T07:19:46.469Z,38.54
2022-12-19T07:22:12.830Z,39.20
2022-12-19T07:24:39.153Z,40.46
2022-12-19T07:27:08.707Z,40.16
2022-12-19T07:29:35.035Z,39.96
2022-12-19T07:32:29.669Z,39.71
2022-12-19T07:34:56.142Z,39.52
2022-12-19T07:37:22.601Z,39.27
2022-12-19T07:39:48.930Z,39.42
2022-12-19T07:42:15.323Z,39.37
2022-12-19T07:44:41.663Z,39.35
2022-12-19T07:47:09.631Z,39.31
2022-12-19T07:49:35.975Z,39.01
2022-12-19T07:52:04.984Z,39.13
2022-12-19T07:54:31.380Z,39.13
2022-12-19T07:57:01.030Z,39.19
2022-12-19T07:59:31.212Z,39.12
2022-12-19T08:01:59.839Z,38.46
2022-12-19T08:04:26.311Z,38.38
2022-12-19T08:06:52.692Z,38.88
2022-12-19T08:09:28.783Z,38.49
2022-12-19T08:11:55.201Z,38.51
2022-12-19T08:14:21.517Z,38.34
2022-12-19T08:17:18.694Z,38.67
2022-12-19T08:19:34.254Z,38.62
2022-12-19T08:22:00.618Z,38.67
2022-12-19T08:24:26.946Z,38.82
2022-12-19T08:26:53.310Z,38.77
2022-12-19T08:29:19.627Z,38.81
2022-12-19T08:31:45.970Z,38.72
2022-12-19T08:34:12.324Z,38.83
2022-12-19T08:36:39.444Z,38.94
2022-12-19T08:39:06.041Z,38.83
2022-12-19T08:41:32.472Z,38.82
2022-12-19T08:43:58.797Z,38.88
2022-12-19T08:46:26.037Z,38.84
2022-12-19T08:49:04.637Z,38.88
2022-12-19T08:51:31.059Z,38.91
2022-12-19T08:53:58.223Z,38.97
2022-12-19T08:56:27.903Z,38.97
2022-12-19T08:58:55.959Z,38.93
2022-12-19T09:01:23.914Z,38.88
2022-12-19T09:04:34.800Z,39.00
2022-12-19T09:06:36.864Z,38.94
2022-12-19T09:09:03.862Z,38.93
2022-12-19T09:11:30.226Z,39.00
2022-12-19T09:14:03.090Z,39.05
2022-12-19T09:16:29.571Z,38.95
2022-12-19T09:18:56.937Z,38.96
2022-12-19T09:21:23.395Z,38.92
2022-12-19T09:23:50.263Z,38.84
2022-12-19T09:26:16.744Z,38.65
2022-12-19T09:28:43.834Z,38.81
2022-12-19T09:31:10.917Z,39.46
2022-12-19T09:33:43.100Z,39.38
2022-12-19T09:36:11.883Z,33.53
2022-12-19T09:38:45.336Z,34.99
2022-12-19T09:41:20.700Z,32.65
2022-12-19T09:44:05.864Z,33.51
2022-12-19T09:46:32.210Z,33.68
2022-12-19T09:48:58.579Z,34.47
2022-12-19T09:51:32.891Z,34.84
2022-12-19T09:54:05.243Z,35.21
2022-12-19T09:56:34.003Z,35.56
2022-12-19T09:59:34.272Z,35.85
2022-12-19T10:02:18.552Z,36.10
2022-12-19T10:04:47.879Z,36.67
2022-12-19T10:07:34.291Z,36.34
2022-12-19T10:12:39.022Z,36.58
2022-12-19T10:13:11.050Z,36.84
2022-12-19T10:16:00.222Z,37.13
2022-12-19T10:18:48.455Z,37.63
2022-12-19T10:21:36.982Z,37.83
2022-12-19T10:24:17.459Z,37.76
2022-12-19T10:26:48.226Z,37.70
2022-12-19T10:29:35.346Z,37.55
2022-12-19T10:32:11.006Z,37.64
2022-12-19T10:34:41.417Z,37.80
2022-12-19T10:37:43.867Z,37.87
2022-12-19T10:40:28.905Z,38.00
2022-12-19T10:42:57.316Z,38.19
2022-12-19T10:45:25.353Z,38.01
2022-12-19T10:47:54.687Z,38.28
2022-12-19T10:50:21.767Z,38.37
2022-12-19T10:52:56.746Z,38.29
2022-12-19T10:55:26.658Z,38.45
2022-12-19T10:57:53.007Z,38.24
2022-12-19T11:00:20.055Z,38.34
2022-12-19T11:02:49.887Z,38.26
2022-12-19T11:05:24.193Z,38.44
2022-12-19T11:08:00.496Z,38.28
2022-12-19T11:11:30.413Z,38.43
2022-12-19T11:19:19.790Z,38.31
2022-12-19T11:22:46.948Z,38.33
2022-12-19T11:29:16.787Z,38.41
2022-12-19T11:29:27.450Z,38.37
2022-12-19T11:29:43.950Z,37.85
2022-12-19T11:30:47.441Z,38.15
2022-12-19T11:33:14.006Z,37.92
2022-12-19T11:35:50.182Z,37.55
2022-12-19T11:38:17.665Z,37.75
2022-12-19T11:41:06.338Z,38.41
2022-12-19T11:43:52.196Z,38.26
2022-12-19T11:46:36.806Z,38.15
2022-12-19T11:49:10.030Z,38.59
2022-12-19T11:51:44.449Z,39.24
2022-12-19T11:54:18.924Z,38.66
2022-12-19T11:56:45.286Z,38.54
2022-12-19T11:59:21.943Z,38.31
2022-12-19T12:02:06.919Z,38.76
2022-12-19T12:04:38.114Z,38.78
2022-12-19T12:07:11.812Z,38.63
2022-12-19T12:13:45.653Z,38.69
2022-12-19T12:21:18.688Z,38.44
2022-12-19T12:26:33.480Z,38.92
2022-12-19T12:31:09.041Z,39.25
2022-12-19T12:31:09.680Z,39.29
2022-12-19T12:31:52.362Z,38.55
2022-12-19T12:31:56.860Z,39.14
2022-12-19T12:32:06.756Z,39.35
2022-12-19T12:35:42.374Z,39.31
2022-12-19T12:37:51.059Z,39.46
2022-12-19T12:39:18.331Z,38.97
2022-12-19T12:42:03.761Z,39.30
2022-12-19T12:44:35.441Z,39.28
2022-12-19T12:47:06.600Z,39.66
2022-12-19T12:49:38.989Z,39.68
2022-12-19T12:52:06.861Z,39.52
2022-12-19T12:54:34.103Z,39.18
2022-12-19T12:57:00.821Z,39.30
2022-12-19T12:59:27.867Z,39.54
2022-12-19T13:01:55.052Z,39.60
2022-12-19T13:04:25.362Z,39.74
2022-12-19T13:06:51.617Z,39.40
2022-12-19T13:09:17.847Z,39.88
2022-12-19T13:12:06.548Z,39.57
2022-12-19T13:14:35.696Z,39.00
2022-12-19T13:17:02.615Z,39.08
2022-12-19T13:19:29.652Z,39.14
2022-12-19T13:22:05.090Z,39.20
2022-12-19T13:24:37.845Z,39.56
2022-12-19T13:27:04.247Z,39.64
2022-12-19T13:29:32.145Z,39.63
2022-12-19T13:32:11.320Z,39.19
2022-12-19T13:34:37.688Z,40.07
2022-12-19T13:39:54.511Z,39.77
2022-12-19T13:40:10.896Z,39.73
2022-12-19T13:43:10.774Z,39.81
2022-12-19T13:45:37.953Z,39.74
2022-12-19T13:48:05.734Z,39.53
2022-12-19T13:50:36.249Z,39.83
2022-12-19T13:53:02.762Z,39.64
2022-12-19T13:55:29.578Z,39.73
2022-12-19T13:57:58.858Z,39.94
2022-12-19T14:00:46.334Z,39.87
2022-12-19T14:03:16.178Z,40.10
2022-12-19T14:06:17.015Z,39.87
2022-12-19T14:08:29.064Z,39.81
2022-12-19T14:11:36.817Z,39.96
2022-12-19T14:14:08.486Z,39.81
2022-12-19T14:16:45.023Z,40.03
2022-12-19T14:19:22.138Z,39.83
2022-12-19T14:22:11.161Z,39.88
2022-12-19T14:24:34.862Z,39.83
2022-12-19T14:28:19.582Z,40.10
2022-12-19T14:30:27.463Z,40.01
2022-12-19T14:33:47.266Z,39.97
2022-12-19T14:36:11.254Z,39.98
2022-12-19T14:39:25.379Z,39.92
2022-12-19T14:41:08.632Z,39.96
2022-12-19T14:43:58.989Z,40.35
2022-12-19T14:52:34.728Z,40.62
2022-12-19T14:54:01.421Z,39.81
2022-12-19T14:54:32.220Z,39.92
2022-12-19T14:56:16.053Z,40.34
2022-12-19T14:58:54.942Z,40.19
2022-12-19T15:01:10.280Z,40.10
2022-12-19T15:03:39.737Z,40.02
2022-12-19T15:07:05.758Z,39.75
2022-12-19T15:09:34.215Z,39.98
2022-12-19T15:12:56.509Z,40.03
2022-12-19T15:14:59.917Z,40.40
2022-12-19T15:17:26.530Z,39.98
2022-12-19T15:19:52.890Z,39.52
2022-12-19T15:22:19.325Z,39.72
2022-12-19T15:24:45.707Z,39.47
2022-12-19T15:27:13.153Z,39.40
2022-12-19T15:29:42.431Z,39.88
2022-12-19T15:32:15.677Z,40.02
2022-12-19T15:34:50.547Z,40.02
2022-12-19T15:37:17.860Z,39.47
2022-12-19T15:39:44.193Z,39.51
2022-12-19T15:42:15.483Z,40.15
2022-12-19T15:44:41.827Z,40.68
2022-12-19T15:47:15.047Z,40.46
2022-12-19T15:49:41.438Z,40.43
2022-12-19T15:52:15.606Z,40.00
2022-12-19T15:54:50.698Z,39.99
2022-12-19T15:57:17.452Z,40.27
2022-12-19T15:59:43.990Z,40.56
2022-12-19T16:02:21.472Z,40.67
2022-12-19T16:04:48.330Z,40.14
2022-12-19T16:07:15.477Z,40.17
2022-12-19T16:09:47.551Z,40.26
2022-12-19T16:12:18.438Z,39.79
2022-12-19T16:14:44.951Z,39.81
2022-12-19T16:17:18.757Z,39.72
2022-12-19T16:19:45.131Z,39.91
2022-12-19T16:22:15.436Z,40.30
2022-12-19T16:24:41.763Z,40.16
2022-12-19T16:27:09.514Z,40.01
2022-12-19T16:29:40.801Z,40.17
2022-12-19T16:32:11.841Z,40.51
2022-12-19T16:34:41.070Z,40.39
2022-12-19T16:37:07.400Z,40.75
2022-12-19T16:39:34.288Z,41.09
2022-12-19T16:42:00.616Z,40.34
2022-12-19T16:44:26.978Z,39.89
2022-12-19T16:46:53.379Z,40.28
2022-12-19T16:49:20.130Z,39.91
2022-12-19T16:51:46.468Z,40.42
2022-12-19T16:54:12.932Z,40.71
2022-12-19T16:56:40.646Z,40.50
2022-12-19T16:59:14.443Z,40.50
2022-12-19T17:01:42.561Z,40.54
2022-12-19T17:04:11.344Z,40.62
2022-12-19T17:06:41.108Z,40.49
2022-12-19T17:09:15.566Z,40.53
2022-12-19T17:11:44.648Z,40.68
2022-12-19T17:14:14.456Z,40.47
2022-12-19T17:16:40.868Z,40.39
2022-12-19T17:19:08.407Z,40.43
2022-12-19T17:21:37.685Z,40.50
2022-12-19T17:24:05.563Z,40.81
2022-12-19T17:26:31.998Z,40.54
2022-12-19T17:28:58.325Z,40.67
2022-12-19T17:31:26.536Z,40.40
2022-12-19T17:33:54.002Z,40.71
2022-12-19T17:36:26.026Z,40.79
2022-12-19T17:38:54.067Z,40.81
2022-12-19T17:41:20.393Z,40.82
2022-12-19T17:43:46.726Z,40.70
2022-12-19T17:46:19.414Z,40.78
2022-12-19T17:48:46.164Z,40.59
2022-12-19T17:51:12.481Z,40.83
2022-12-19T17:53:38.813Z,40.32
2022-12-19T17:56:05.167Z,41.35
2022-12-19T17:58:31.593Z,40.89
2022-12-19T18:00:57.984Z,41.32
2022-12-19T18:03:24.964Z,41.02
2022-12-19T18:05:52.214Z,40.81
2022-12-19T18:08:22.801Z,41.42
2022-12-19T18:10:56.935Z,41.43
2022-12-19T18:13:23.861Z,41.66
2022-12-19T18:15:50.240Z,41.64
2022-12-19T18:18:19.497Z,41.82
2022-12-19T18:20:46.059Z,41.77
2022-12-19T18:23:18.738Z,41.76
2022-12-19T18:25:45.071Z,42.06
2022-12-19T18:28:11.401Z,42.00
2022-12-19T18:30:37.906Z,41.88
2022-12-19T18:33:05.282Z,42.08
2022-12-19T18:35:32.542Z,42.13
2022-12-19T18:37:59.200Z,42.09
2022-12-19T18:40:31.180Z,42.02
2022-12-19T18:42:58.015Z,42.05
2022-12-19T18:45:34.077Z,42.41
2022-12-19T18:48:00.525Z,43.21
2022-12-19T18:50:26.935Z,42.66
2022-12-19T18:52:53.285Z,42.57
2022-12-19T18:55:20.426Z,42.97
2022-12-19T18:57:46.750Z,42.99
2022-12-19T19:00:16.975Z,43.07
2022-12-19T19:02:57.046Z,42.29
2022-12-19T19:05:24.573Z,40.98
2022-12-19T19:07:50.938Z,41.28
2022-12-19T19:10:18.088Z,41.75
2022-12-19T19:12:54.331Z,41.71
2022-12-19T19:15:21.110Z,41.79
2022-12-19T19:17:48.244Z,42.22
2022-12-19T19:20:14.584Z,42.26
2022-12-19T19:22:41.508Z,41.97
2022-12-19T19:25:07.985Z,42.11
2022-12-19T19:27:34.321Z,42.37
2022-12-19T19:30:00.653Z,42.07
2022-12-19T19:32:27.061Z,42.85
2022-12-19T19:34:55.517Z,43.01
2022-12-19T19:37:21.852Z,42.32
2022-12-19T19:39:48.186Z,42.60
2022-12-19T19:42:14.655Z,42.45
2022-12-19T19:44:40.995Z,42.58
2022-12-19T19:47:07.335Z,42.67
2022-12-19T19:49:36.639Z,42.74
2022-12-19T19:52:03.505Z,42.77
2022-12-19T19:54:30.409Z,43.80
2022-12-19T19:56:56.719Z,43.36
2022-12-19T19:59:23.068Z,43.30
2022-12-19T20:01:54.089Z,43.41
2022-12-19T20:04:20.719Z,43.26
2022-12-19T20:06:47.169Z,43.27
2022-12-19T20:09:13.508Z,43.43
2022-12-19T20:11:39.882Z,43.36
2022-12-19T20:14:06.213Z,43.36
2022-12-19T20:16:32.818Z,43.25
2022-12-19T20:18:59.619Z,43.52
2022-12-19T20:21:26.054Z,43.57
2022-12-19T20:23:52.390Z,43.68
2022-12-19T20:26:18.714Z,43.55
2022-12-19T20:28:48.823Z,43.61
2022-12-19T20:31:16.841Z,43.62
2022-12-19T20:33:43.236Z,43.50
2022-12-19T20:36:10.078Z,43.73
2022-12-19T20:38:36.467Z,43.55
2022-12-19T20:41:02.828Z,43.61
2022-12-19T20:43:29.170Z,43.80
2022-12-19T20:46:02.110Z,43.78
2022-12-19T20:48:28.549Z,44.00
2022-12-19T20:50:55.547Z,43.85
2022-12-19T20:53:21.862Z,43.96
2022-12-19T20:55:57.537Z,43.95
2022-12-19T20:58:24.693Z,43.99
2022-12-19T21:00:53.962Z,43.98
2022-12-19T21:03:29.351Z,44.00
2022-12-19T21:05:59.296Z,43.88
2022-12-19T21:08:25.634Z,43.85
2022-12-19T21:10:52.044Z,44.01
2022-12-19T21:13:18.362Z,44.04
2022-12-19T21:15:44.785Z,44.10
2022-12-19T21:18:11.184Z,44.04
2022-12-19T21:20:38.019Z,44.29
2022-12-19T21:23:04.589Z,45.16
2022-12-19T21:25:30.959Z,44.46
2022-12-19T21:28:00.996Z,44.30
2022-12-19T21:30:27.336Z,44.61
2022-12-19T21:32:53.742Z,44.55
2022-12-19T21:35:20.132Z,44.74
2022-12-19T21:37:50.079Z,44.84
2022-12-19T21:40:16.782Z,45.25
2022-12-19T21:42:43.159Z,44.89
2022-12-19T21:45:09.800Z,44.54
2022-12-19T21:47:39.186Z,44.52
2022-12-19T21:50:09.085Z,44.63
2022-12-19T21:52:35.480Z,44.77
2022-12-19T21:55:01.820Z,44.69
2022-12-19T21:57:28.145Z,44.66
2022-12-19T21:59:54.534Z,44.52
2022-12-19T22:02:21.094Z,44.45
2022-12-19T22:04:48.338Z,44.57
2022-12-19T22:07:14.924Z,44.57
2022-12-19T22:09:41.480Z,44.49
2022-12-19T22:12:08.798Z,44.35
2022-12-19T22:14:35.141Z,44.39
2022-12-19T22:17:01.500Z,44.33
2022-12-19T22:19:27.850Z,44.36
2022-12-19T22:21:54.166Z,44.33
2022-12-19T22:24:20.500Z,44.48
2022-12-19T22:26:46.840Z,44.27
2022-12-19T22:29:13.878Z,44.21
2022-12-19T22:31:40.708Z,44.44
2022-12-19T22:34:07.899Z,44.56
2022-12-19T22:36:34.754Z,44.50
2022-12-19T22:39:01.653Z,44.55
2022-12-19T22:41:28.023Z,44.57
2022-12-19T22:43:54.466Z,44.59
2022-12-19T22:46:26.219Z,44.58
2022-12-19T22:48:52.843Z,44.56
2022-12-19T22:51:19.429Z,44.53
2022-12-19T22:53:45.995Z,44.34
2022-12-19T22:56:18.429Z,44.27
2022-12-19T22:58:45.167Z,44.13
2022-12-19T23:01:12.401Z,44.30
2022-12-19T23:03:38.853Z,44.54
2022-12-19T23:06:05.313Z,44.57
2022-12-19T23:08:31.652Z,44.67
2022-12-19T23:10:58.043Z,44.60
2022-12-19T23:13:24.448Z,44.60
2022-12-19T23:15:50.799Z,44.64
2022-12-19T23:18:17.145Z,44.61
2022-12-19T23:20:43.492Z,44.65
2022-12-19T23:23:10.040Z,44.60
2022-12-19T23:25:39.458Z,44.75
2022-12-19T23:28:06.251Z,44.54
2022-12-19T23:30:32.753Z,44.52
2022-12-19T23:33:00.744Z,44.54
2022-12-19T23:35:27.324Z,44.48
2022-12-19T23:37:53.701Z,44.54
2022-12-19T23:40:20.059Z,44.53
2022-12-19T23:42:46.408Z,44.63
2022-12-19T23:45:12.896Z,44.57
2022-12-19T23:47:40.191Z,44.46
2022-12-19T23:50:06.805Z,44.45
2022-12-19T23:52:33.127Z,44.48
2022-12-19T23:54:59.763Z,44.38
2022-12-19T23:57:26.094Z,44.44
2022-12-19T23:59:52.432Z,44.41
